Phoenix, Arizona
Traffic Map
Current Weather Conditions
Phoenix, Arizona
Overcast
Overcast
69°
Feels Like: 69°
Wind Chill: 69° Ceiling: 6000
Heat Index: 69° Visibility: 10mi
Dew Point: 43° Wind: 8mph
Humidity: 39% Direction: 210° (SSW)
Pressure: 29.8in Gusts: 0mph
Raw Report DataKPHX 282251Z 21007KT 10SM SCT045 BKN060 OVC080 21/06 A2980 RMK AO2 SLP080 T02060061
Traffic Incident Summary
Active as of:
Severity:
Category:
InformationThere was an issue retrieving the traffic information for this location. Please try a different location or try again shortly.
Advertisements
Track Severe Weather on mobile